Time;durP1;ratioP1;P1;durP2;ratioP2;P2;SDS_P1;SDS_P2;PMS_P1;PMS_P2;Temp;Humidity;BMP_temperature;BMP_pressure;BME280_temperature;BME280_humidity;BME280_pressure;Samples;Min_cycle;Max_cycle;Signal;HPM_P1;HPM_P2
2023/07/16 00:01:49;;;;;;;3.40;3.20;;;;;;;27.24;62.64;99601.34;5094653;28;20276;-70
2023/07/16 00:04:15;;;;;;;5.30;3.40;;;;;;;27.26;62.64;99603.78;5093946;28;20217;-70
2023/07/16 00:06:42;;;;;;;3.60;3.40;;;;;;;27.26;62.41;99611.97;5094352;28;20686;-70
2023/07/16 00:09:09;;;;;;;4.13;3.53;;;;;;;27.08;63.12;99610.09;5094209;28;20548;-70
2023/07/16 00:11:37;;;;;;;3.57;3.37;;;;;;;27.14;63.06;99609.72;5094100;28;20567;-70
2023/07/16 00:14:03;;;;;;;4.20;3.57;;;;;;;27.17;62.71;99608.28;5094172;28;20192;-70
2023/07/16 00:16:30;;;;;;;5.13;3.50;;;;;;;27.11;62.92;99607.56;5094126;28;20575;-70
2023/07/16 00:18:57;;;;;;;3.57;3.37;;;;;;;27.09;62.85;99614.44;5094392;28;20249;-70
2023/07/16 00:21:24;;;;;;;3.00;2.90;;;;;;;27.03;62.95;99610.19;5093947;28;20284;-70
2023/07/16 00:23:50;;;;;;;3.60;3.30;;;;;;;27.01;63.52;99609.69;5094392;28;20196;-70
2023/07/16 00:26:17;;;;;;;5.30;3.20;;;;;;;26.90;63.65;99609.06;5094339;28;20248;-70
2023/07/16 00:28:45;;;;;;;4.77;3.30;;;;;;;26.88;63.76;99602.28;5094379;28;20195;-70
2023/07/16 00:31:12;;;;;;;3.50;3.20;;;;;;;26.90;63.49;99608.25;5093781;28;20253;-70
2023/07/16 00:33:38;;;;;;;4.57;3.40;;;;;;;26.84;63.95;99614.91;5093793;28;20284;-68
2023/07/16 00:36:05;;;;;;;3.40;3.10;;;;;;;26.86;63.49;99618.16;5093614;28;20580;-70
2023/07/16 00:38:32;;;;;;;5.63;3.07;;;;;;;26.76;63.94;99615.56;5094197;28;20191;-70
2023/07/16 00:40:59;;;;;;;3.57;3.23;;;;;;;26.65;64.16;99623.13;5093320;28;20219;-70
2023/07/16 00:43:25;;;;;;;3.40;3.10;;;;;;;26.42;64.97;99617.75;5093475;28;20545;-70
2023/07/16 00:45:54;;;;;;;5.93;3.30;;;;;;;26.56;64.76;99619.44;5093720;28;20248;-70
2023/07/16 00:48:21;;;;;;;3.20;3.00;;;;;;;26.34;65.30;99618.41;5093916;28;20252;-70
2023/07/16 00:50:47;;;;;;;3.43;3.13;;;;;;;26.46;65.01;99621.50;5093475;28;20663;-70
2023/07/16 00:53:14;;;;;;;4.00;3.30;;;;;;;26.55;64.79;99617.00;5093557;28;20621;-69
2023/07/16 00:55:41;;;;;;;3.60;3.33;;;;;;;26.15;66.44;99618.44;5093488;28;20191;-70
2023/07/16 00:58:08;;;;;;;4.30;3.10;;;;;;;26.30;66.00;99614.66;5093549;28;20663;-70
2023/07/16 01:00:36;;;;;;;4.33;3.20;;;;;;;26.42;65.63;99609.56;5093637;28;20191;-70
2023/07/16 01:03:07;;;;;;;3.30;3.10;;;;;;;26.43;65.17;99613.91;5093417;28;20191;-70
2023/07/16 01:05:40;;;;;;;4.00;3.60;;;;;;;26.42;65.51;99609.56;5093053;28;20723;-70
2023/07/16 01:08:11;;;;;;;3.23;3.00;;;;;;;26.41;65.42;99611.47;5093319;28;20187;-70
2023/07/16 01:10:40;;;;;;;5.23;3.50;;;;;;;26.31;66.14;99613.56;5093937;28;20187;-70
2023/07/16 01:13:07;;;;;;;3.37;3.10;;;;;;;26.37;65.86;99609.66;5092988;28;20670;-70
2023/07/16 01:15:33;;;;;;;3.13;2.97;;;;;;;26.40;65.51;99614.50;5092164;28;20199;-70
2023/07/16 01:18:00;;;;;;;3.70;3.40;;;;;;;26.46;65.66;99607.88;5093028;28;20257;-70
2023/07/16 01:20:28;;;;;;;4.60;3.33;;;;;;;26.53;65.51;99617.28;5093327;28;20195;-70
2023/07/16 01:23:42;;;;;;;3.50;3.30;;;;;;;26.59;65.20;99615.31;5093224;28;20249;-70
2023/07/16 01:26:27;;;;;;;3.37;3.17;;;;;;;26.60;65.48;99619.66;5093172;28;20187;-70
2023/07/16 01:29:28;;;;;;;3.30;3.10;;;;;;;26.57;65.45;99620.22;5093169;28;20309;-70
2023/07/16 01:31:56;;;;;;;3.57;3.27;;;;;;;26.59;65.46;99628.94;5092737;28;20189;-70
2023/07/16 01:34:24;;;;;;;3.77;3.33;;;;;;;26.59;65.35;99620.78;5092689;28;20227;-70
2023/07/16 01:36:51;;;;;;;3.60;3.30;;;;;;;26.63;65.15;99629.97;5092506;28;20670;-69
2023/07/16 01:39:18;;;;;;;3.70;3.40;;;;;;;26.60;65.53;99625.13;5092711;28;20199;-70
2023/07/16 01:41:44;;;;;;;5.20;3.40;;;;;;;26.54;65.86;99626.28;5092589;28;20694;-69
2023/07/16 01:44:11;;;;;;;4.07;3.60;;;;;;;26.56;65.67;99626.78;5092450;28;20663;-70
2023/07/16 01:46:39;;;;;;;4.00;3.70;;;;;;;26.58;65.34;99627.34;5092706;28;20556;-69
2023/07/16 01:49:06;;;;;;;6.87;3.73;;;;;;;26.37;66.24;99626.78;5092644;28;20245;-70
2023/07/16 01:51:33;;;;;;;5.50;3.33;;;;;;;26.44;65.86;99626.41;5092803;28;20199;-70
2023/07/16 01:53:59;;;;;;;4.03;3.73;;;;;;;26.36;66.62;99624.38;5092686;28;20191;-70
2023/07/16 01:56:26;;;;;;;4.00;3.70;;;;;;;26.41;66.14;99627.03;5092343;28;20192;-70
2023/07/16 01:58:53;;;;;;;4.13;3.90;;;;;;;26.35;66.46;99629.03;5092644;28;20190;-70
2023/07/16 02:01:19;;;;;;;3.90;3.60;;;;;;;26.40;66.42;99625.41;5092285;28;20219;-70
2023/07/16 02:03:47;;;;;;;3.80;3.60;;;;;;;26.45;66.19;99628.06;5092474;28;20195;-70
2023/07/16 02:06:14;;;;;;;4.97;3.63;;;;;;;26.37;66.53;99626.00;5092415;28;20217;-70
2023/07/16 02:08:41;;;;;;;8.40;3.67;;;;;;;26.31;66.49;99627.16;5091856;28;20684;-70
2023/07/16 02:11:07;;;;;;;3.60;3.40;;;;;;;26.38;67.12;99625.69;5091855;28;20736;-70
2023/07/16 02:13:34;;;;;;;5.37;3.20;;;;;;;26.49;66.40;99629.06;5091945;28;20248;-70
2023/07/16 02:16:01;;;;;;;3.57;3.30;;;;;;;26.54;66.29;99629.00;5092037;28;20853;-70
2023/07/16 02:18:27;;;;;;;4.10;3.60;;;;;;;26.60;66.07;99630.56;5092200;28;20191;-70
2023/07/16 02:20:55;;;;;;;4.40;3.47;;;;;;;26.61;66.00;99637.63;5092165;28;20192;-70
2023/07/16 02:23:22;;;;;;;4.20;3.80;;;;;;;26.53;66.17;99635.53;5091863;28;20195;-70
2023/07/16 02:25:49;;;;;;;3.70;3.50;;;;;;;26.51;66.18;99635.88;5091738;28;20198;-70
2023/07/16 02:28:16;;;;;;;4.47;4.07;;;;;;;26.46;66.34;99633.19;5091922;28;20227;-70
2023/07/16 02:30:42;;;;;;;6.00;3.70;;;;;;;26.38;66.50;99638.50;5092162;28;20260;-70
2023/07/16 02:33:09;;;;;;;3.90;3.60;;;;;;;26.29;67.28;99634.84;5091618;28;20195;-70
2023/07/16 02:35:36;;;;;;;3.53;3.23;;;;;;;26.37;67.09;99640.41;5092193;28;20249;-70
2023/07/16 02:38:05;;;;;;;4.47;4.03;;;;;;;26.42;67.00;99629.44;5091433;28;20739;-70
2023/07/16 02:40:31;;;;;;;3.77;3.50;;;;;;;26.46;66.78;99641.38;5092055;28;20248;-70
2023/07/16 02:42:58;;;;;;;3.83;3.60;;;;;;;26.52;66.34;99639.38;5091831;28;20283;-70
2023/07/16 02:45:25;;;;;;;4.50;4.00;;;;;;;26.55;66.73;99636.06;5091970;28;20192;-70
2023/07/16 02:47:51;;;;;;;4.10;3.90;;;;;;;26.60;66.51;99644.19;5091534;28;20548;-70
2023/07/16 02:50:18;;;;;;;4.67;4.37;;;;;;;26.61;66.07;99641.16;5091637;28;20241;-70
2023/07/16 02:52:45;;;;;;;4.13;3.93;;;;;;;26.65;66.26;99642.19;5091271;28;20199;-70
2023/07/16 02:55:13;;;;;;;7.03;4.03;;;;;;;26.67;66.37;99641.91;5091912;28;20623;-70
2023/07/16 02:57:40;;;;;;;4.67;4.10;;;;;;;26.58;66.60;99635.50;5091663;28;20195;-70
2023/07/16 03:00:08;;;;;;;4.00;3.70;;;;;;;26.60;66.27;99645.00;5091523;28;20199;-70
2023/07/16 03:02:34;;;;;;;4.07;3.83;;;;;;;26.61;66.60;99643.91;5091700;28;20219;-70
2023/07/16 03:05:01;;;;;;;3.97;3.70;;;;;;;26.67;66.43;99650.06;5091942;28;20191;-70
2023/07/16 03:07:28;;;;;;;4.13;3.73;;;;;;;26.69;66.05;99645.94;5091639;28;20207;-70
2023/07/16 03:09:54;;;;;;;5.13;4.00;;;;;;;26.70;66.00;99641.31;5091342;28;20241;-71
2023/07/16 03:12:22;;;;;;;4.00;3.80;;;;;;;26.71;66.11;99642.94;5091464;28;20641;-70
2023/07/16 03:14:50;;;;;;;4.93;4.60;;;;;;;26.72;66.29;99647.25;5091614;28;20195;-70
2023/07/16 03:17:17;;;;;;;5.93;4.17;;;;;;;26.70;66.45;99649.50;5091206;28;20639;-70
2023/07/16 03:19:44;;;;;;;4.80;4.40;;;;;;;26.73;66.35;99644.25;5090919;28;20630;-70
2023/07/16 03:22:10;;;;;;;4.53;4.20;;;;;;;26.76;66.36;99645.56;5091325;28;20267;-70
2023/07/16 03:24:37;;;;;;;4.27;3.97;;;;;;;26.76;66.20;99645.56;5091187;28;20719;-70
2023/07/16 03:27:04;;;;;;;4.37;4.07;;;;;;;26.78;65.80;99649.59;5091147;28;20192;-70
2023/07/16 03:29:33;;;;;;;4.53;4.10;;;;;;;26.73;66.50;99649.69;5091042;28;20203;-70
2023/07/16 03:32:00;;;;;;;5.13;4.30;;;;;;;26.75;66.36;99654.84;5091529;28;20200;-70
2023/07/16 03:34:27;;;;;;;4.67;4.37;;;;;;;26.83;66.48;99656.91;5091190;28;20566;-70
2023/07/16 03:36:53;;;;;;;4.90;4.53;;;;;;;26.86;66.21;99656.31;5091586;28;20191;-70
2023/07/16 03:39:20;;;;;;;4.60;4.20;;;;;;;26.89;66.82;99655.69;5094114;28;20651;-70
2023/07/16 03:41:47;;;;;;;4.60;4.30;;;;;;;26.95;66.74;99659.97;5094465;28;20775;-70
2023/07/16 03:44:13;;;;;;;5.40;4.90;;;;;;;26.92;65.93;99655.13;5094926;28;20252;-70
2023/07/16 03:46:41;;;;;;;5.47;3.90;;;;;;;26.90;66.84;99651.88;5094976;28;20195;-70
2023/07/16 03:49:08;;;;;;;4.90;4.10;;;;;;;26.85;66.73;99660.94;5094341;28;20248;-70
2023/07/16 03:51:35;;;;;;;5.57;4.87;;;;;;;26.80;66.63;99662.94;5094861;28;20196;-70
2023/07/16 03:54:02;;;;;;;7.30;4.47;;;;;;;26.80;66.78;99668.41;5094489;28;20195;-70
2023/07/16 03:56:28;;;;;;;4.60;4.30;;;;;;;26.93;66.74;99668.44;5094243;28;20191;-70
2023/07/16 03:58:55;;;;;;;5.60;4.43;;;;;;;27.08;66.35;99661.94;5094407;28;20191;-70
2023/07/16 04:01:22;;;;;;;6.57;4.77;;;;;;;27.16;65.83;99663.97;5094360;28;20712;-70
2023/07/16 04:03:50;;;;;;;4.67;4.27;;;;;;;27.16;65.67;99672.94;5094253;28;20545;-70
2023/07/16 04:06:17;;;;;;;7.57;4.60;;;;;;;27.19;64.91;99671.56;5094187;28;20248;-70
2023/07/16 04:08:43;;;;;;;5.50;4.40;;;;;;;27.35;64.90;99664.72;5094417;28;20191;-70
2023/07/16 04:11:10;;;;;;;5.17;4.67;;;;;;;27.50;63.92;99672.63;5094315;28;20190;-70
2023/07/16 04:13:37;;;;;;;5.13;4.83;;;;;;;27.82;63.14;99672.56;5093724;28;20253;-71
2023/07/16 04:16:03;;;;;;;4.70;4.40;;;;;;;28.61;60.78;99682.88;5093855;28;20659;-70
2023/07/16 04:18:30;;;;;;;4.87;4.57;;;;;;;29.31;57.64;99685.81;5093993;28;20190;-70
2023/07/16 04:20:58;;;;;;;5.50;5.00;;;;;;;29.88;55.79;99698.50;5093923;28;20331;-70
2023/07/16 04:23:25;;;;;;;4.63;4.33;;;;;;;30.36;52.50;99700.09;5093758;28;20706;-70
2023/07/16 04:25:54;;;;;;;5.47;4.93;;;;;;;30.96;51.46;99705.59;5093733;28;20275;-71
2023/07/16 04:28:20;;;;;;;5.33;4.77;;;;;;;31.51;49.60;99707.28;5093874;28;20685;-70
2023/07/16 04:30:47;;;;;;;4.47;4.17;;;;;;;32.04;47.27;99704.00;5094030;28;20255;-70
2023/07/16 04:33:14;;;;;;;5.57;3.80;;;;;;;32.47;46.40;99713.63;5093491;28;20200;-71
2023/07/16 04:35:40;;;;;;;4.47;4.17;;;;;;;33.08;45.11;99723.03;5094000;28;20280;-71
2023/07/16 04:38:08;;;;;;;5.33;4.30;;;;;;;33.41;42.68;99709.28;5093570;28;20191;-71
2023/07/16 04:40:35;;;;;;;4.60;4.30;;;;;;;33.80;42.64;99720.47;5093697;28;20271;-71
2023/07/16 04:43:02;;;;;;;4.77;4.23;;;;;;;34.41;40.93;99726.84;5093756;28;20234;-71
2023/07/16 04:45:29;;;;;;;4.10;3.45;;;;;;;35.00;38.69;99725.91;5093764;28;20213;-71
2023/07/16 04:47:56;;;;;;;5.60;4.10;;;;;;;35.10;38.34;99732.84;5093706;28;20187;-71
2023/07/16 04:50:22;;;;;;;4.50;4.20;;;;;;;35.26;37.81;99733.69;5093414;28;20628;-71
2023/07/16 04:52:49;;;;;;;7.25;4.00;;;;;;;35.42;37.71;99740.91;5093628;28;20191;-71
2023/07/16 04:55:17;;;;;;;3.85;3.65;;;;;;;35.49;36.47;99737.53;5093608;28;20249;-71
2023/07/16 04:57:44;;;;;;;4.28;3.88;;;;;;;35.66;36.57;99740.78;5093250;28;20195;-71
2023/07/16 05:00:11;;;;;;;4.10;3.80;;;;;;;35.90;36.62;99739.81;5092890;28;20191;-71
2023/07/16 05:02:38;;;;;;;9.98;3.80;;;;;;;36.51;35.44;99740.91;5093303;28;20219;-71
2023/07/16 05:05:05;;;;;;;4.32;3.80;;;;;;;36.90;34.80;99739.81;5093235;28;20195;-71
2023/07/16 05:07:32;;;;;;;4.75;4.35;;;;;;;37.17;33.71;99744.38;5072592;28;20746;-71
2023/07/16 05:09:59;;;;;;;4.93;3.75;;;;;;;37.22;33.26;99741.28;5072879;28;20253;-71
2023/07/16 05:12:27;;;;;;;3.92;3.60;;;;;;;37.59;32.40;99756.28;5073043;28;20261;-70
2023/07/16 05:14:53;;;;;;;3.83;3.53;;;;;;;38.20;31.64;99753.41;5072287;28;20196;-70
2023/07/16 05:17:20;;;;;;;3.97;3.67;;;;;;;38.94;30.75;99749.75;5072837;28;20192;-71
2023/07/16 05:19:47;;;;;;;4.82;4.32;;;;;;;38.98;30.17;99756.16;5072278;28;20656;-70
2023/07/16 05:22:13;;;;;;;10.15;4.25;;;;;;;37.92;31.65;99748.16;5072532;28;20442;-71
2023/07/16 05:24:40;;;;;;;4.00;3.75;;;;;;;37.53;32.61;99746.66;5072521;28;20249;-71
2023/07/16 05:27:07;;;;;;;5.47;3.75;;;;;;;37.56;32.02;99751.47;5072317;28;20232;-70
2023/07/16 05:29:35;;;;;;;3.80;3.50;;;;;;;37.22;32.58;99746.84;5072153;28;20622;-71
2023/07/16 05:32:02;;;;;;;5.25;3.95;;;;;;;37.66;32.04;99753.66;5072302;28;20192;-71
2023/07/16 05:34:29;;;;;;;4.53;4.18;;;;;;;37.91;31.29;99751.28;5072047;28;20282;-70
2023/07/16 05:36:55;;;;;;;4.95;4.20;;;;;;;38.02;31.00;99753.09;5072116;28;20565;-70
2023/07/16 05:39:22;;;;;;;4.05;3.70;;;;;;;38.46;30.64;99762.50;5071531;28;20445;-70
2023/07/16 05:41:49;;;;;;;7.88;3.90;;;;;;;38.54;30.35;99758.69;5071920;28;20640;-70
2023/07/16 05:44:16;;;;;;;4.97;3.75;;;;;;;38.69;29.86;99760.50;5071791;28;20184;-70
2023/07/16 05:46:44;;;;;;;4.28;3.90;;;;;;;39.06;29.64;99763.41;5072013;28;20490;-70
2023/07/16 05:49:10;;;;;;;4.85;4.35;;;;;;;38.82;30.09;99769.41;5072107;28;20196;-71
2023/07/16 05:51:37;;;;;;;3.97;3.70;;;;;;;38.47;30.61;99769.72;5071917;28;20218;-71
2023/07/16 05:54:04;;;;;;;4.13;3.78;;;;;;;38.92;30.19;99764.03;5071736;28;20581;-70
2023/07/16 05:56:31;;;;;;;4.47;4.10;;;;;;;38.76;30.29;99774.50;5071930;28;20741;-70
2023/07/16 05:58:58;;;;;;;52.17;7.25;;;;;;;39.17;29.74;99770.69;5071913;28;20192;-71
2023/07/16 06:01:24;;;;;;;7.65;4.10;;;;;;;39.12;29.47;99770.22;5070996;28;20214;-70
2023/07/16 06:03:53;;;;;;;4.13;3.80;;;;;;;39.45;28.92;99771.03;5071535;28;20742;-70
2023/07/16 06:06:20;;;;;;;6.18;4.40;;;;;;;39.14;29.59;99765.88;5082102;28;20681;-70
2023/07/16 06:08:48;;;;;;;4.35;3.90;;;;;;;39.15;29.46;99777.81;5092081;28;20732;-70
2023/07/16 06:11:14;;;;;;;6.25;4.15;;;;;;;39.20;29.13;99769.13;5091647;28;20725;-70
2023/07/16 06:13:41;;;;;;;4.63;3.78;;;;;;;38.53;30.51;99757.09;5092355;28;20203;-70
2023/07/16 06:16:08;;;;;;;4.28;3.88;;;;;;;38.34;31.03;99759.16;5091671;28;20191;-70
2023/07/16 06:18:34;;;;;;;4.60;4.30;;;;;;;38.72;30.23;99759.75;5091813;28;20213;-71
2023/07/16 06:21:02;;;;;;;4.32;3.80;;;;;;;38.53;30.83;99754.31;5091842;28;20720;-70
2023/07/16 06:23:29;;;;;;;4.53;4.13;;;;;;;38.97;29.91;99755.34;5091547;28;20215;-71
2023/07/16 06:25:56;;;;;;;4.47;3.70;;;;;;;39.33;29.35;99757.41;5091485;28;20187;-71
2023/07/16 06:28:23;;;;;;;4.82;4.00;;;;;;;39.37;29.69;99751.88;5091420;28;20195;-70
2023/07/16 06:30:51;;;;;;;5.35;4.03;;;;;;;39.53;29.04;99761.59;5091479;28;20616;-70
2023/07/16 06:33:18;;;;;;;4.50;3.58;;;;;;;39.94;28.60;99754.84;5092007;28;20191;-71
2023/07/16 06:35:46;;;;;;;8.98;4.25;;;;;;;39.66;28.90;99754.56;5091884;28;20635;-71
2023/07/16 06:38:15;;;;;;;4.47;4.18;;;;;;;39.25;29.27;99758.47;5091745;28;20289;-70
2023/07/16 06:40:48;;;;;;;4.65;4.18;;;;;;;38.74;30.03;99749.06;5091600;28;20253;-70
2023/07/16 06:43:14;;;;;;;5.55;4.30;;;;;;;38.25;30.80;99739.19;5091568;28;20690;-70
2023/07/16 06:45:41;;;;;;;6.28;4.30;;;;;;;38.19;31.39;99735.94;5091362;28;20195;-70
2023/07/16 06:48:08;;;;;;;10.43;4.88;;;;;;;38.23;31.02;99724.88;5091299;28;20195;-70
2023/07/16 06:50:34;;;;;;;4.25;4.05;;;;;;;38.09;31.44;99719.91;5091190;28;20654;-70
2023/07/16 06:53:01;;;;;;;4.32;4.07;;;;;;;38.34;30.81;99717.50;5091762;28;20568;-70
2023/07/16 06:55:29;;;;;;;4.20;3.92;;;;;;;38.57;30.53;99727.41;5090978;28;20241;-70
2023/07/16 06:57:56;;;;;;;8.57;4.55;;;;;;;38.54;30.20;99724.59;5091350;28;20245;-71
2023/07/16 07:00:23;;;;;;;5.13;4.40;;;;;;;38.71;30.58;99724.84;5091255;28;20426;-70
2023/07/16 07:02:49;;;;;;;4.43;3.55;;;;;;;38.66;30.38;99727.91;5091459;28;20254;-70
2023/07/16 07:05:16;;;;;;;4.30;4.07;;;;;;;38.67;30.33;99729.53;5091643;28;20261;-70
2023/07/16 07:07:44;;;;;;;4.93;4.28;;;;;;;39.09;29.59;99730.09;5091823;28;20357;-70
2023/07/16 07:10:12;;;;;;;5.00;4.50;;;;;;;39.17;29.36;99731.78;5090898;28;20196;-70
2023/07/16 07:12:40;;;;;;;4.75;4.22;;;;;;;38.94;29.59;99733.88;5093816;28;20191;-70
2023/07/16 07:15:09;;;;;;;4.65;4.35;;;;;;;38.94;29.92;99728.31;5095061;28;20667;-70
2023/07/16 07:17:36;;;;;;;6.07;4.10;;;;;;;39.08;29.49;99738.81;5094773;28;20191;-70
2023/07/16 07:20:03;;;;;;;6.82;4.28;;;;;;;38.33;30.89;99730.59;5094981;28;20625;-70
2023/07/16 07:22:30;;;;;;;3.90;3.70;;;;;;;38.19;30.75;99724.84;5094892;28;20198;-70
2023/07/16 07:24:56;;;;;;;5.95;3.90;;;;;;;38.22;30.82;99728.84;5095345;28;20191;-70
2023/07/16 07:27:23;;;;;;;4.32;3.92;;;;;;;38.46;29.97;99731.19;5095080;28;20293;-70
2023/07/16 07:29:52;;;;;;;5.50;3.85;;;;;;;38.51;29.98;99726.13;5095453;28;20191;-70
2023/07/16 07:32:19;;;;;;;4.13;3.72;;;;;;;38.70;29.28;99728.75;5095038;28;20745;-70
2023/07/16 07:34:46;;;;;;;8.30;4.22;;;;;;;38.73;29.55;99716.91;5095225;28;20224;-70
2023/07/16 07:37:13;;;;;;;5.82;3.67;;;;;;;38.64;29.77;99723.91;5094808;28;20256;-70
2023/07/16 07:39:40;;;;;;;4.40;4.00;;;;;;;38.67;29.37;99721.19;5094950;28;20195;-70
2023/07/16 07:42:07;;;;;;;6.10;4.18;;;;;;;38.42;29.73;99722.00;5094843;28;20260;-70
2023/07/16 07:44:34;;;;;;;3.80;3.42;;;;;;;38.32;29.50;99722.63;5094548;28;20223;-70
2023/07/16 07:47:02;;;;;;;4.15;3.83;;;;;;;38.47;29.07;99718.91;5094809;28;20195;-70
2023/07/16 07:49:28;;;;;;;3.55;3.25;;;;;;;38.41;29.37;99707.31;5094641;28;20244;-70
2023/07/16 07:51:55;;;;;;;6.72;3.72;;;;;;;38.64;29.09;99719.16;5094953;28;20203;-70
2023/07/16 07:54:22;;;;;;;5.72;3.33;;;;;;;38.14;29.78;99722.38;5094475;28;20195;-70
2023/07/16 07:56:48;;;;;;;3.50;3.20;;;;;;;37.83;29.31;99705.19;5094372;28;20221;-70
2023/07/16 07:59:15;;;;;;;3.55;3.20;;;;;;;37.59;30.21;99711.91;5094514;28;20195;-71
2023/07/16 08:01:41;;;;;;;4.40;3.97;;;;;;;38.00;29.68;99719.34;5094088;28;20617;-71
2023/07/16 08:04:10;;;;;;;3.83;3.63;;;;;;;37.75;29.41;99717.34;5094427;28;20664;-70
2023/07/16 08:06:36;;;;;;;3.90;3.60;;;;;;;37.96;29.27;99720.47;5094007;28;20245;-70
2023/07/16 08:09:03;;;;;;;4.22;3.75;;;;;;;38.29;29.41;99718.63;5093977;28;20195;-70
2023/07/16 08:11:30;;;;;;;3.72;3.53;;;;;;;38.60;28.92;99710.00;5094386;28;20510;-70
2023/07/16 08:13:56;;;;;;;4.65;3.63;;;;;;;38.83;28.51;99721.81;5094110;28;20199;-70
2023/07/16 08:16:23;;;;;;;4.00;3.78;;;;;;;38.93;28.25;99725.91;5093840;28;20187;-70
2023/07/16 08:18:50;;;;;;;4.93;3.50;;;;;;;38.55;29.07;99715.88;5093805;28;20254;-70
2023/07/16 08:21:19;;;;;;;5.28;3.85;;;;;;;37.99;29.66;99709.41;5093768;28;20191;-70
2023/07/16 08:23:47;;;;;;;4.07;3.78;;;;;;;37.81;29.86;99713.91;5093313;28;20771;-70
2023/07/16 08:26:14;;;;;;;4.13;3.55;;;;;;;37.70;30.29;99707.34;5093791;28;20662;-70
2023/07/16 08:28:40;;;;;;;4.90;3.47;;;;;;;37.81;30.19;99713.91;5093908;28;20662;-70
2023/07/16 08:31:07;;;;;;;3.85;3.60;;;;;;;37.95;29.57;99707.75;5094097;28;20245;-70
2023/07/16 08:33:34;;;;;;;4.05;3.58;;;;;;;38.20;29.80;99701.44;5094019;28;20619;-70
2023/07/16 08:36:01;;;;;;;5.65;3.75;;;;;;;38.40;29.48;99711.25;5093229;28;20619;-70
2023/07/16 08:38:29;;;;;;;7.15;3.65;;;;;;;38.60;29.14;99707.22;5093722;28;20195;-70
2023/07/16 08:40:55;;;;;;;5.80;3.60;;;;;;;38.88;28.88;99713.13;5093206;28;20191;-70
2023/07/16 08:43:23;;;;;;;4.55;4.10;;;;;;;38.75;29.18;99697.88;5093849;28;20280;-70
2023/07/16 08:45:50;;;;;;;4.07;3.72;;;;;;;38.71;29.34;99705.38;5093754;28;20195;-70
2023/07/16 08:48:17;;;;;;;4.28;3.92;;;;;;;38.85;28.93;99702.75;5093556;28;20252;-70
2023/07/16 08:50:47;;;;;;;4.32;3.70;;;;;;;38.87;29.08;99692.06;5093595;28;20245;-70
2023/07/16 08:53:15;;;;;;;5.40;3.58;;;;;;;38.79;29.54;99695.97;5093875;28;20195;-70
2023/07/16 08:55:45;;;;;;;4.32;3.92;;;;;;;38.78;29.46;99697.13;5093642;28;20646;-70
2023/07/16 08:58:14;;;;;;;3.80;3.45;;;;;;;38.80;29.04;99700.34;5093311;28;20252;-70
2023/07/16 09:00:41;;;;;;;4.05;3.72;;;;;;;38.76;29.13;99699.47;5093242;28;20203;-70
2023/07/16 09:03:08;;;;;;;4.07;3.30;;;;;;;38.47;29.62;99686.41;5092794;28;20191;-70
2023/07/16 09:05:36;;;;;;;9.05;4.85;;;;;;;38.45;30.15;99688.72;5092786;28;20819;-70
2023/07/16 09:08:03;;;;;;;4.35;4.05;;;;;;;38.17;29.78;99682.75;5092611;28;20194;-70
2023/07/16 09:10:30;;;;;;;4.10;3.70;;;;;;;38.15;30.53;99684.31;5092952;28;20195;-70
2023/07/16 09:12:59;;;;;;;4.28;3.92;;;;;;;37.75;30.51;99676.53;5093314;28;20217;-70
2023/07/16 09:15:28;;;;;;;5.47;4.50;;;;;;;37.22;31.73;99679.53;5093109;28;20187;-70
2023/07/16 09:17:56;;;;;;;5.82;4.30;;;;;;;37.52;31.08;99684.03;5093122;28;20192;-70
2023/07/16 09:20:24;;;;;;;7.53;4.30;;;;;;;37.37;31.46;99682.19;5092880;28;20658;-70
2023/07/16 09:22:54;;;;;;;5.38;4.18;;;;;;;37.56;31.50;99673.81;5092489;28;20198;-70
2023/07/16 09:25:20;;;;;;;3.90;3.67;;;;;;;37.70;31.65;99671.31;5093039;28;20280;-70
2023/07/16 09:27:49;;;;;;;4.60;4.25;;;;;;;37.97;31.01;99684.03;5092484;28;20195;-70
2023/07/16 09:30:17;;;;;;;5.32;4.03;;;;;;;38.12;31.04;99683.09;5092645;28;20207;-70
2023/07/16 09:32:45;;;;;;;4.68;3.83;;;;;;;38.16;31.10;99680.38;5092460;28;20296;-70
2023/07/16 09:35:12;;;;;;;9.73;4.38;;;;;;;38.01;30.96;99676.56;5091493;28;20315;-70
2023/07/16 09:37:40;;;;;;;7.63;4.72;;;;;;;38.00;31.49;99668.63;5092548;28;20191;-70
2023/07/16 09:40:09;;;;;;;5.43;4.68;;;;;;;37.70;32.03;99671.31;5092752;28;20187;-70
2023/07/16 09:42:38;;;;;;;6.22;5.20;;;;;;;37.85;31.60;99659.28;5092752;28;20625;-70
2023/07/16 09:45:07;;;;;;;5.00;4.28;;;;;;;37.48;32.18;99654.66;5092145;28;20255;-70
2023/07/16 09:47:35;;;;;;;9.07;4.90;;;;;;;37.65;32.72;99660.53;5092079;28;20674;-70
2023/07/16 09:50:02;;;;;;;6.88;4.90;;;;;;;37.37;32.91;99656.44;5092339;28;20194;-70
2023/07/16 09:52:29;;;;;;;6.35;5.30;;;;;;;37.39;32.64;99651.31;5091894;28;20240;-70
2023/07/16 09:54:57;;;;;;;5.53;5.22;;;;;;;37.69;32.82;99646.72;5092142;28;20663;-71
2023/07/16 09:57:26;;;;;;;6.65;5.68;;;;;;;37.89;31.95;99640.72;5092321;28;20199;-71
2023/07/16 09:59:54;;;;;;;5.65;4.72;;;;;;;37.90;32.29;99639.53;5092357;28;20256;-71
2023/07/16 10:02:22;;;;;;;5.18;4.78;;;;;;;37.92;32.37;99642.72;5092387;28;20190;-71
2023/07/16 10:04:50;;;;;;;6.05;5.03;;;;;;;37.89;32.75;99631.56;5092126;28;20225;-69
2023/07/16 10:07:21;;;;;;;5.55;5.15;;;;;;;37.81;32.37;99627.09;5092025;28;20599;-68
2023/07/16 10:09:54;;;;;;;5.60;5.10;;;;;;;37.67;32.58;99624.09;5092065;28;20745;-71
2023/07/16 10:12:22;;;;;;;5.50;5.10;;;;;;;37.31;33.76;99617.13;5092247;28;20190;-71
2023/07/16 10:14:50;;;;;;;8.70;5.75;;;;;;;37.48;33.43;99622.19;5092469;28;20198;-69
2023/07/16 10:17:18;;;;;;;7.30;5.70;;;;;;;37.54;33.14;99615.13;5092086;28;20188;-69
2023/07/16 10:19:56;;;;;;;7.13;6.07;;;;;;;37.73;33.02;99628.16;5091757;28;20199;-68
2023/07/16 10:22:34;;;;;;;7.07;5.53;;;;;;;37.98;32.96;99619.03;5091571;28;20179;-71
2023/07/16 10:25:01;;;;;;;6.20;5.55;;;;;;;38.11;32.54;99612.09;5091792;28;20585;-71
2023/07/16 10:27:29;;;;;;;6.63;5.75;;;;;;;38.29;32.75;99610.34;5092204;28;20274;-71
2023/07/16 10:29:56;;;;;;;6.10;5.60;;;;;;;37.92;32.86;99614.19;5091847;28;20282;-71
2023/07/16 10:32:26;;;;;;;7.55;6.25;;;;;;;38.01;33.08;99607.19;5091873;28;20194;-71
2023/07/16 10:34:54;;;;;;;7.63;6.00;;;;;;;38.09;32.86;99603.34;5091899;28;20280;-71
2023/07/16 10:37:21;;;;;;;7.18;5.57;;;;;;;38.13;32.92;99598.63;5091859;28;20261;-71
2023/07/16 10:39:49;;;;;;;6.70;6.18;;;;;;;37.96;32.99;99588.06;5091943;28;20248;-71
2023/07/16 10:42:17;;;;;;;7.95;6.63;;;;;;;37.89;33.49;99596.31;5091863;28;20191;-71
2023/07/16 10:44:44;;;;;;;6.95;6.38;;;;;;;37.92;33.14;99587.22;5091231;28;20599;-71
2023/07/16 10:47:21;;;;;;;7.28;6.68;;;;;;;37.73;34.03;99581.81;5090920;28;20213;-69
2023/07/16 10:49:47;;;;;;;8.30;7.78;;;;;;;37.85;33.80;99578.81;5091814;28;20214;-69
2023/07/16 10:52:15;;;;;;;9.35;8.43;;;;;;;37.93;33.77;99582.47;5091388;28;20195;-71
2023/07/16 10:54:42;;;;;;;8.70;7.65;;;;;;;37.99;33.50;99572.66;5091608;28;20198;-69
2023/07/16 10:57:09;;;;;;;8.00;6.90;;;;;;;38.15;33.80;99585.19;5091165;28;20237;-69
2023/07/16 10:59:38;;;;;;;9.18;7.38;;;;;;;38.17;33.81;99574.50;5091390;28;20205;-69
2023/07/16 11:02:09;;;;;;;7.65;6.57;;;;;;;38.01;34.32;99581.41;5091754;28;20213;-69
2023/07/16 11:04:36;;;;;;;8.15;7.55;;;;;;;37.84;34.14;99573.63;5091411;28;20227;-69
2023/07/16 11:07:06;;;;;;;9.40;8.27;;;;;;;37.92;33.63;99567.78;5091473;28;20195;-68
2023/07/16 11:09:34;;;;;;;8.85;7.90;;;;;;;38.14;33.57;99561.41;5091430;28;20199;-69
2023/07/16 11:12:07;;;;;;;8.07;7.53;;;;;;;38.21;33.29;99561.47;5091305;28;20187;-69
2023/07/16 11:14:33;;;;;;;9.00;8.25;;;;;;;37.27;34.89;99549.72;5091238;28;20260;-69
2023/07/16 11:17:06;;;;;;;8.95;8.15;;;;;;;37.69;34.46;99549.63;5091111;28;20195;-71
2023/07/16 11:19:34;;;;;;;8.55;7.75;;;;;;;37.40;35.55;99551.16;5091386;28;20218;-71
2023/07/16 11:22:01;;;;;;;9.35;7.95;;;;;;;37.17;35.52;99553.16;5091221;28;20209;-71
2023/07/16 11:24:28;;;;;;;8.07;6.88;;;;;;;37.11;35.80;99551.84;5091555;28;20219;-71
2023/07/16 11:26:57;;;;;;;7.50;6.80;;;;;;;37.38;35.38;99550.72;5091218;28;20640;-68
2023/07/16 11:29:24;;;;;;;7.28;6.57;;;;;;;37.33;34.89;99537.19;5091144;28;20287;-71
2023/07/16 11:31:52;;;;;;;11.00;8.15;;;;;;;37.34;35.43;99544.31;5091072;28;20184;-71
2023/07/16 11:34:22;;;;;;;8.13;7.13;;;;;;;37.56;35.04;99540.72;5091025;28;20229;-71
2023/07/16 11:36:50;;;;;;;6.47;5.82;;;;;;;37.71;34.34;99542.53;5091260;28;20190;-70